Latest Weather Observations for Hunters Hill

IDV60801

Issued at 8:05 pm EDT Monday 22 December 2014 (issued every 30 minutes, with the page automatically refreshed every 10 minutes)

About weather observations | Map of weather stations | Latest weather observations for VIC | Other Formats
Station Details ID: 082139 Name: HUNTERS HILL Lat: -36.21 Lon: 147.54 Height: 981.0 m
Data from the previous 72 hours. | See also: Recent months at Hunters Hill
Date/Time
EDT
Temp
°C
App
Temp
°C
Dew
Point
Rel
Hum
%
Delta-T
°C
Wind Press
QNH
hPa
Press
MSL
hPa
Rain
since 9 am
mm
Dir
 
Spd
km/h
Gust
km/h
Spd
kts
Gust
kts
22/08:00pm 15.6 16.1 15.0 96 0.4 SSE 6 7 3 4 - - 2.6
22/07:30pm 15.3 15.7 14.8 97 0.3 SSE 6 9 3 5 - - 2.6
22/07:00pm 16.3 16.9 14.3 88 1.2 ESE 4 6 2 3 - - 2.4
22/06:30pm 16.7 16.9 14.7 88 1.2 ESE 7 9 4 5 - - 2.4
22/06:00pm 16.6 16.8 14.6 88 1.2 ESE 7 11 4 6 - - 2.4
22/05:30pm 16.9 16.6 14.5 86 1.4 E 9 13 5 7 - - 2.4
22/05:00pm 16.9 16.6 14.5 86 1.4 ESE 9 13 5 7 - - 2.4
22/04:30pm 17.1 17.0 14.0 82 1.8 SE 7 11 4 6 - - 2.4
22/04:00pm 18.2 19.1 15.1 82 1.9 NW 4 6 2 3 - - 2.4
22/03:30pm 17.7 17.6 15.0 84 1.6 WSW 9 19 5 10 - - 2.4
22/03:00pm 15.2 13.2 15.0 99 0.1 WSW 19 41 10 22 - - 2.0
22/02:30pm 18.4 16.3 11.0 62 4.2 W 13 32 7 17 - - 1.2
22/02:29pm 20.5 18.4 11.2 55 5.4 W 13 32 7 17 - - 0.4
22/02:00pm 25.5 25.0 10.9 40 8.6 NNE 4 7 2 4 - - 0.0
22/01:30pm 26.5 26.0 12.5 41 8.5 N 7 17 4 9 - - 0.0
22/01:00pm 25.4 24.1 10.1 38 8.9 N 7 13 4 7 - - 0.0
22/12:30pm 27.0 26.7 12.6 41 8.7 NNE 6 9 3 5 - - 0.0
22/12:00pm 25.3 24.3 11.1 41 8.4 N 7 17 4 9 - - 0.0
22/11:30am 24.9 23.9 11.1 42 8.1 N 7 15 4 8 - - 0.0
22/11:00am 24.4 23.9 12.0 46 7.4 N 6 11 3 6 - - 0.0
22/10:30am 23.6 22.6 11.0 45 7.3 NNE 7 17 4 9 - - 0.0
22/10:00am 23.2 22.0 9.6 42 7.7 NNE 6 13 3 7 - - 0.0
22/09:30am 23.1 22.3 9.8 43 7.6 ENE 4 11 2 6 - - 0.0
22/09:00am 22.7 22.3 9.8 44 7.3 W 2 9 1 5 - - 0.0
22/08:30am 22.1 21.5 8.9 43 7.4 WSW 2 6 1 3 - - 0.0
22/08:00am 19.1 18.6 9.3 53 5.4 WSW 2 4 1 2 - - 0.0
22/07:30am 19.0 18.5 9.5 54 5.3 WSW 2 4 1 2 - - 0.0
22/07:00am 17.9 17.2 8.7 55 5.0 WSW 2 4 1 2 - - 0.0
22/06:30am 17.7 16.6 8.3 54 5.1 WSW 4 6 2 3 - - 0.0
22/06:00am 17.7 16.8 7.7 52 5.3 WSW 2 4 1 2 - - 0.0
22/05:30am 18.0 17.1 7.7 51 5.5 WSW 2 4 1 2 - - 0.0
22/05:00am 17.9 17.0 7.6 51 5.5 WSW 2 4 1 2 - - 0.0
22/04:30am 18.2 16.8 7.3 49 5.8 WSW 4 6 2 3 - - 0.0
22/04:00am 18.2 17.1 7.0 48 5.9 WSW 2 6 1 3 - - 0.0
22/03:30am 18.5 17.4 6.7 46 6.2 WSW 2 4 1 2 - - 0.0
22/03:00am 19.0 18.3 6.8 45 6.4 CALM 0 0 0 0 - - 0.0
22/02:30am 19.3 18.5 6.4 43 6.8 CALM 0 0 0 0 - - 0.0
22/02:00am 19.8 19.0 6.5 42 7.0 CALM 0 0 0 0 - - 0.0
22/01:30am 19.8 19.0 6.5 42 7.0 CALM 0 2 0 1 - - 0.0
22/01:00am 19.8 18.2 6.2 41 7.1 WSW 4 4 2 2 - - 0.0
22/12:30am 20.5 19.3 6.5 40 7.4 WSW 2 4 1 2 - - 0.0
22/12:00am 20.4 18.8 6.4 40 7.4 WSW 4 4 2 2 - - 0.0
 
Date/Time
EDT
Temp
°C
App
Temp
°C
Dew
Point
Rel
Hum
%
Delta-T
°C
Wind Press
QNH
hPa
Press
MSL
hPa
Rain
since 9 am
mm
Dir
 
Spd
km/h
Gust
km/h
Spd
kts
Gust
kts
21/11:30pm 20.4 18.8 6.4 40 7.4 WSW 4 4 2 2 - - 0.0
21/11:00pm 20.6 19.0 6.5 40 7.5 WSW 4 6 2 3 - - 0.0
21/10:30pm 20.5 18.9 6.5 40 7.4 WSW 4 6 2 3 - - 0.0
21/10:00pm 20.8 19.6 6.4 39 7.6 WSW 2 6 1 3 - - 0.0
21/09:30pm 21.2 19.6 6.3 38 7.9 WSW 4 6 2 3 - - 0.0
21/09:00pm 21.5 20.3 6.6 38 8.0 WSW 2 7 1 4 - - 0.0
21/08:30pm 22.0 20.9 6.7 37 8.2 WSW 2 6 1 3 - - 0.0
21/08:00pm 22.9 21.9 5.8 33 9.1 CALM 0 6 0 3 - - 0.0
21/07:30pm 24.6 23.4 6.4 31 9.9 WSW 2 4 1 2 - - 0.0
21/07:00pm 25.5 24.0 6.7 30 10.3 WSW 4 7 2 4 - - 0.0
21/06:30pm 25.7 24.6 6.8 30 10.4 NW 2 6 1 3 - - 0.0
21/06:00pm 24.8 23.2 6.5 31 9.9 NNW 4 9 2 5 - - 0.0
21/05:30pm 24.6 23.0 6.4 31 9.9 WSW 4 7 2 4 - - 0.0
21/05:00pm 25.1 22.7 5.3 28 10.5 WSW 7 13 4 7 - - 0.0
21/04:30pm 26.7 25.4 7.7 30 10.6 WNW 4 9 2 5 - - 0.0
21/04:00pm 25.8 23.9 6.9 30 10.4 SSW 6 13 3 7 - - 0.0
21/03:30pm 25.6 23.2 7.2 31 10.2 W 9 19 5 10 - - 0.0
21/03:00pm 25.9 24.2 7.5 31 10.2 W 6 11 3 6 - - 0.0
21/02:30pm 25.0 22.9 6.7 31 10.0 W 7 17 4 9 - - 0.0
21/02:00pm 23.8 21.4 7.0 34 9.1 W 9 13 5 7 - - 0.0
21/01:30pm 24.0 21.9 8.4 37 8.7 WNW 9 17 5 9 - - 0.0
21/01:00pm 23.6 21.1 8.1 37 8.6 WNW 11 20 6 11 - - 0.0
21/12:30pm 22.6 20.6 7.2 37 8.4 WNW 7 17 4 9 - - 0.0
21/12:00pm 22.4 21.4 10.9 48 6.7 WNW 7 13 4 7 - - 0.0
21/11:30am 21.6 20.7 10.7 50 6.3 W 6 13 3 7 - - 0.0
21/11:00am 21.5 20.9 11.8 54 5.7 NNW 6 13 3 7 - - 0.0
21/10:30am 20.1 19.0 10.8 55 5.3 N 7 13 4 7 - - 0.0
21/10:00am 19.4 18.4 10.9 58 4.8 WNW 7 13 4 7 - - 0.0
21/09:30am 20.2 20.3 11.4 57 5.1 NNW 2 7 1 4 - - 0.0
21/09:00am 18.9 18.5 11.0 60 4.5 N 4 9 2 5 - - 0.0
21/08:30am 17.4 16.8 10.3 63 4.0 NNE 4 7 2 4 - - 0.0
21/08:00am 16.4 16.3 10.7 69 3.2 NE 2 6 1 3 - - 0.0
21/07:30am 15.7 15.5 10.5 71 2.9 NE 2 6 1 3 - - 0.0
21/07:00am 15.1 15.1 11.1 77 2.2 N 2 4 1 2 - - 0.0
21/06:30am 14.5 13.9 10.5 77 2.2 SSW 4 6 2 3 - - 0.0
21/06:00am 14.4 14.1 10.2 76 2.3 SSW 2 2 1 1 - - 0.0
21/05:30am 14.3 14.0 10.1 76 2.3 SSW 2 2 1 1 - - 0.0
21/05:00am 14.4 14.1 10.0 75 2.4 SSW 2 2 1 1 - - 0.0
21/04:30am 14.4 14.4 9.8 74 2.5 CALM 0 2 0 1 - - 0.0
21/04:00am 14.7 14.3 9.9 73 2.6 SSW 2 6 1 3 - - 0.0
21/03:30am 14.8 14.5 10.0 73 2.6 SW 2 4 1 2 - - 0.0
21/03:00am 15.1 14.7 9.7 70 2.9 SW 2 6 1 3 - - 0.0
21/02:30am 15.3 14.9 9.9 70 3.0 SW 2 4 1 2 - - 0.0
21/02:00am 16.2 16.3 10.1 67 3.4 CALM 0 0 0 0 - - 0.0
21/01:30am 16.3 16.3 9.7 65 3.6 CALM 0 0 0 0 - - 0.0
21/01:00am 16.4 16.2 8.9 61 4.1 CALM 0 0 0 0 - - 0.0
21/12:30am 16.8 16.3 8.0 56 4.7 CALM 0 0 0 0 - - 0.0
21/12:00am 17.5 16.7 6.7 49 5.6 CALM 0 0 0 0 - - 0.0
 
Date/Time
EDT
Temp
°C
App
Temp
°C
Dew
Point
Rel
Hum
%
Delta-T
°C
Wind Press
QNH
hPa
Press
MSL
hPa
Rain
since 9 am
mm
Dir
 
Spd
km/h
Gust
km/h
Spd
kts
Gust
kts
20/11:30pm 16.8 15.6 6.3 50 5.4 SW 2 4 1 2 - - 0.0
20/11:00pm 17.3 15.7 6.5 49 5.6 WSW 4 7 2 4 - - 0.0
20/10:30pm 17.6 15.7 6.8 49 5.7 WSW 6 11 3 6 - - 0.0
20/10:00pm 17.7 16.0 7.4 51 5.5 WSW 6 7 3 4 - - 0.0
20/09:30pm 17.9 16.2 7.6 51 5.5 W 6 7 3 4 - - 0.0
20/09:00pm 17.9 16.0 7.6 51 5.5 WSW 7 11 4 6 - - 0.0
20/08:30pm 18.2 16.6 7.9 51 5.5 W 6 11 3 6 - - 0.0
20/08:00pm 19.2 17.6 8.2 49 6.0 W 6 7 3 4 - - 0.0
20/07:30pm 21.2 19.4 7.8 42 7.3 WSW 7 13 4 7 - - 0.0
20/07:00pm 22.5 21.3 7.9 39 8.0 SW 4 7 2 4 - - 0.0
20/06:30pm 22.8 21.2 7.8 38 8.2 SW 6 9 3 5 - - 0.0
20/06:00pm 22.9 20.9 6.2 34 8.9 WSW 6 11 3 6 - - 0.0
20/05:30pm 23.3 21.8 7.0 35 8.9 SSW 4 7 2 4 - - 0.0
20/05:00pm 23.1 21.2 6.8 35 8.8 NW 6 9 3 5 - - 0.0
20/04:30pm 22.9 21.5 7.4 37 8.5 SW 4 11 2 6 - - 0.0
20/04:00pm 22.2 20.2 7.2 38 8.1 WSW 7 13 4 7 - - 0.0
20/03:30pm 21.8 19.9 6.9 38 8.0 SW 6 15 3 8 - - 0.0
20/03:00pm 21.6 19.6 7.1 39 7.8 W 7 11 4 6 - - 0.0
20/02:30pm 20.6 18.1 6.5 40 7.5 NW 9 15 5 8 - - 0.0
20/02:00pm 19.9 17.3 5.9 40 7.3 WNW 9 15 5 8 - - 0.0
20/01:30pm 19.5 17.2 5.9 41 7.1 NW 7 15 4 8 - - 0.0
20/01:00pm 19.3 17.3 7.1 45 6.5 WNW 7 13 4 7 - - 0.0
20/12:30pm 18.2 16.4 7.3 49 5.8 WNW 6 9 3 5 - - 0.0
20/12:00pm 18.7 17.1 7.8 49 5.9 WNW 6 15 3 8 - - 0.0
20/11:30am 17.6 16.0 7.9 53 5.2 WNW 6 13 3 7 - - 0.0
20/11:00am 16.7 15.1 7.9 56 4.7 NW 6 9 3 5 - - 0.0
20/10:30am 15.7 14.0 7.5 58 4.3 NW 6 9 3 5 - - 0.0
20/10:00am 15.0 13.0 6.3 56 4.4 WNW 6 9 3 5 - - 0.0
20/09:30am 14.2 12.7 6.6 60 3.9 NW 4 7 2 4 - - 0.0
20/09:00am 13.2 11.6 6.3 63 3.5 NNE 4 9 2 5 - - 0.0
20/08:30am 12.8 11.4 5.7 62 3.5 ESE 2 7 1 4 - - 0.0
20/08:00am 11.5 10.5 5.6 67 2.9 CALM 0 2 0 1 - - 0.0
20/07:30am 10.3 9.0 5.9 74 2.2 SSE 2 6 1 3 - - 0.0
20/07:00am 9.8 8.5 6.0 77 1.9 SSE 2 4 1 2 - - 0.0
20/06:30am 9.1 7.7 5.5 78 1.7 SSE 2 4 1 2 - - 0.0
20/06:00am 8.9 7.4 5.1 77 1.8 SSE 2 2 1 1 - - 0.0
20/05:30am 9.0 7.5 5.0 76 1.9 SSE 2 4 1 2 - - 0.0
20/05:00am 9.1 7.6 5.1 76 1.9 SSE 2 2 1 1 - - 0.0
20/04:30am 9.1 7.6 5.1 76 1.9 SSE 2 4 1 2 - - 0.0
20/04:00am 9.3 7.8 5.1 75 2.0 SSE 2 4 1 2 - - 0.0
20/03:30am 9.6 8.1 5.0 73 2.2 SSE 2 4 1 2 - - 0.0
20/03:00am 9.8 8.0 5.2 73 2.2 SSE 4 4 2 2 - - 0.0
20/02:30am 9.9 8.5 5.3 73 2.2 SSE 2 4 1 2 - - 0.0
20/02:00am 9.9 8.1 5.3 73 2.2 SSE 4 6 2 3 - - 0.0
20/01:30am 10.0 8.1 5.0 71 2.4 SSE 4 7 2 4 - - 0.0
20/01:00am 10.3 8.1 5.1 70 2.5 SSE 6 9 3 5 - - 0.0
20/12:30am 10.7 8.8 4.8 67 2.8 WSW 4 7 2 4 - - 0.0
20/12:00am 11.0 9.1 4.7 65 3.0 WSW 4 7 2 4 - - 0.0
 
Date/Time
EDT
Temp
°C
App
Temp
°C
Dew
Point
Rel
Hum
%
Delta-T
°C
Wind Press
QNH
hPa
Press
MSL
hPa
Rain
since 9 am
mm
Dir
 
Spd
km/h
Gust
km/h
Spd
kts
Gust
kts
19/11:30pm 11.4 9.5 4.8 64 3.2 WSW 4 7 2 4 - - 0.0
19/11:00pm 11.1 9.5 4.6 64 3.1 WSW 2 4 1 2 - - 0.0
19/10:30pm 11.7 9.3 4.2 60 3.6 WSW 6 9 3 5 - - 0.0
19/10:00pm 12.2 9.2 4.2 58 3.8 W 9 17 5 9 - - 0.0
19/09:30pm 13.0 9.2 3.7 53 4.4 WSW 13 24 7 13 - - 0.0
19/09:00pm 13.4 9.5 3.5 51 4.7 WSW 13 22 7 12 - - 0.0
19/08:30pm 13.9 10.8 3.7 50 4.9 WSW 9 17 5 9 - - 0.0

Other Formats:

Comma delimited format used in spreadsheet applications
http://www.bom.gov.au/fwo/IDV60801/IDV60801.94878.axf

JavaScript Object Notation format (JSON) in row-major order
http://www.bom.gov.au/fwo/IDV60801/IDV60801.94878.json